sensor_id;sensor_type;location;lat;lon;timestamp;P1;durP1;ratioP1;P2;durP2;ratioP2
51244;SDS011;37840;47.562;18.738;2023-04-25T00:02:21;2.25;;;1.30;;
51244;SDS011;37840;47.562;18.738;2023-04-25T00:04:47;3.90;;;1.87;;
51244;SDS011;37840;47.562;18.738;2023-04-25T00:07:14;1.85;;;1.45;;
51244;SDS011;37840;47.562;18.738;2023-04-25T00:09:41;2.28;;;1.80;;
51244;SDS011;37840;47.562;18.738;2023-04-25T00:12:07;1.75;;;1.65;;
51244;SDS011;37840;47.562;18.738;2023-04-25T00:14:34;2.15;;;1.87;;
51244;SDS011;37840;47.562;18.738;2023-04-25T00:17:01;2.37;;;1.90;;
51244;SDS011;37840;47.562;18.738;2023-04-25T00:19:28;2.25;;;1.85;;
51244;SDS011;37840;47.562;18.738;2023-04-25T00:21:54;2.67;;;2.12;;
51244;SDS011;37840;47.562;18.738;2023-04-25T00:24:21;2.10;;;1.90;;
51244;SDS011;37840;47.562;18.738;2023-04-25T00:26:46;2.60;;;2.28;;
51244;SDS011;37840;47.562;18.738;2023-04-25T00:29:13;3.53;;;2.65;;
51244;SDS011;37840;47.562;18.738;2023-04-25T00:31:39;3.22;;;2.42;;
51244;SDS011;37840;47.562;18.738;2023-04-25T00:34:05;2.40;;;2.20;;
51244;SDS011;37840;47.562;18.738;2023-04-25T00:36:32;2.55;;;2.30;;
51244;SDS011;37840;47.562;18.738;2023-04-25T00:38:58;2.95;;;2.55;;
51244;SDS011;37840;47.562;18.738;2023-04-25T00:41:24;2.72;;;1.98;;
51244;SDS011;37840;47.562;18.738;2023-04-25T00:43:51;3.67;;;2.40;;
51244;SDS011;37840;47.562;18.738;2023-04-25T00:46:20;3.58;;;2.37;;
51244;SDS011;37840;47.562;18.738;2023-04-25T00:48:46;6.62;;;2.12;;
51244;SDS011;37840;47.562;18.738;2023-04-25T00:51:16;2.65;;;2.05;;
51244;SDS011;37840;47.562;18.738;2023-04-25T00:53:44;2.87;;;2.20;;
51244;SDS011;37840;47.562;18.738;2023-04-25T00:56:11;2.47;;;2.20;;
51244;SDS011;37840;47.562;18.738;2023-04-25T00:58:37;2.37;;;2.17;;
51244;SDS011;37840;47.562;18.738;2023-04-25T01:01:03;2.37;;;2.17;;
51244;SDS011;37840;47.562;18.738;2023-04-25T01:03:31;2.20;;;2.00;;
51244;SDS011;37840;47.562;18.738;2023-04-25T01:05:58;2.58;;;2.12;;
51244;SDS011;37840;47.562;18.738;2023-04-25T01:08:24;6.00;;;2.00;;
51244;SDS011;37840;47.562;18.738;2023-04-25T01:10:51;2.05;;;1.92;;
51244;SDS011;37840;47.562;18.738;2023-04-25T01:13:16;4.47;;;2.17;;
51244;SDS011;37840;47.562;18.738;2023-04-25T01:15:43;8.02;;;2.60;;
51244;SDS011;37840;47.562;18.738;2023-04-25T01:18:09;2.28;;;2.08;;
51244;SDS011;37840;47.562;18.738;2023-04-25T01:20:35;3.40;;;2.05;;
51244;SDS011;37840;47.562;18.738;2023-04-25T01:23:04;2.40;;;2.05;;
51244;SDS011;37840;47.562;18.738;2023-04-25T01:25:30;8.20;;;3.03;;
51244;SDS011;37840;47.562;18.738;2023-04-25T01:27:57;2.45;;;1.90;;
51244;SDS011;37840;47.562;18.738;2023-04-25T01:30:25;3.03;;;2.10;;
51244;SDS011;37840;47.562;18.738;2023-04-25T01:32:54;2.37;;;2.17;;
51244;SDS011;37840;47.562;18.738;2023-04-25T01:35:21;1.83;;;1.73;;
51244;SDS011;37840;47.562;18.738;2023-04-25T01:37:49;2.50;;;2.20;;
51244;SDS011;37840;47.562;18.738;2023-04-25T01:40:16;2.90;;;2.10;;
51244;SDS011;37840;47.562;18.738;2023-04-25T01:42:44;2.42;;;2.10;;
51244;SDS011;37840;47.562;18.738;2023-04-25T01:45:11;3.00;;;2.17;;
51244;SDS011;37840;47.562;18.738;2023-04-25T01:47:37;3.72;;;2.12;;
51244;SDS011;37840;47.562;18.738;2023-04-25T01:50:05;3.50;;;2.10;;
51244;SDS011;37840;47.562;18.738;2023-04-25T01:52:33;3.62;;;2.28;;
51244;SDS011;37840;47.562;18.738;2023-04-25T01:55:02;2.70;;;2.37;;
51244;SDS011;37840;47.562;18.738;2023-04-25T01:57:28;2.72;;;1.83;;
51244;SDS011;37840;47.562;18.738;2023-04-25T01:59:55;2.40;;;2.20;;
51244;SDS011;37840;47.562;18.738;2023-04-25T02:02:26;2.22;;;1.80;;
51244;SDS011;37840;47.562;18.738;2023-04-25T02:04:52;5.43;;;2.20;;
51244;SDS011;37840;47.562;18.738;2023-04-25T02:07:19;2.08;;;1.80;;
51244;SDS011;37840;47.562;18.738;2023-04-25T02:09:46;2.30;;;2.10;;
51244;SDS011;37840;47.562;18.738;2023-04-25T02:12:12;4.60;;;2.55;;
51244;SDS011;37840;47.562;18.738;2023-04-25T02:14:37;2.33;;;2.12;;
51244;SDS011;37840;47.562;18.738;2023-04-25T02:17:03;3.25;;;2.30;;
51244;SDS011;37840;47.562;18.738;2023-04-25T02:19:31;2.58;;;2.22;;
51244;SDS011;37840;47.562;18.738;2023-04-25T02:21:57;2.28;;;2.08;;
51244;SDS011;37840;47.562;18.738;2023-04-25T02:24:23;3.22;;;2.37;;
51244;SDS011;37840;47.562;18.738;2023-04-25T02:26:49;2.53;;;2.33;;
51244;SDS011;37840;47.562;18.738;2023-04-25T02:29:15;6.35;;;2.40;;
51244;SDS011;37840;47.562;18.738;2023-04-25T02:31:42;2.20;;;2.00;;
51244;SDS011;37840;47.562;18.738;2023-04-25T02:34:08;2.70;;;2.50;;
51244;SDS011;37840;47.562;18.738;2023-04-25T02:36:34;2.42;;;2.22;;
51244;SDS011;37840;47.562;18.738;2023-04-25T02:39:01;2.45;;;2.00;;
51244;SDS011;37840;47.562;18.738;2023-04-25T02:41:28;2.75;;;1.80;;
51244;SDS011;37840;47.562;18.738;2023-04-25T02:43:54;1.73;;;1.62;;
51244;SDS011;37840;47.562;18.738;2023-04-25T02:46:20;2.35;;;2.10;;
51244;SDS011;37840;47.562;18.738;2023-04-25T02:48:46;2.50;;;2.30;;
51244;SDS011;37840;47.562;18.738;2023-04-25T02:51:12;2.10;;;1.90;;
51244;SDS011;37840;47.562;18.738;2023-04-25T02:53:39;2.53;;;2.10;;
51244;SDS011;37840;47.562;18.738;2023-04-25T02:56:05;2.60;;;2.40;;
51244;SDS011;37840;47.562;18.738;2023-04-25T02:58:31;2.58;;;2.33;;
51244;SDS011;37840;47.562;18.738;2023-04-25T03:00:57;3.40;;;2.15;;
51244;SDS011;37840;47.562;18.738;2023-04-25T03:03:23;2.30;;;2.10;;
51244;SDS011;37840;47.562;18.738;2023-04-25T03:05:49;3.17;;;2.20;;
51244;SDS011;37840;47.562;18.738;2023-04-25T03:08:18;2.70;;;2.12;;
51244;SDS011;37840;47.562;18.738;2023-04-25T03:10:45;2.87;;;2.50;;
51244;SDS011;37840;47.562;18.738;2023-04-25T03:13:11;2.80;;;2.10;;
51244;SDS011;37840;47.562;18.738;2023-04-25T03:15:37;3.25;;;2.45;;
51244;SDS011;37840;47.562;18.738;2023-04-25T03:18:04;2.62;;;2.30;;
51244;SDS011;37840;47.562;18.738;2023-04-25T03:20:30;3.40;;;2.20;;
51244;SDS011;37840;47.562;18.738;2023-04-25T03:22:56;2.55;;;2.35;;
51244;SDS011;37840;47.562;18.738;2023-04-25T03:25:22;2.45;;;2.25;;
51244;SDS011;37840;47.562;18.738;2023-04-25T03:27:48;2.87;;;2.20;;
51244;SDS011;37840;47.562;18.738;2023-04-25T03:30:14;2.40;;;2.20;;
51244;SDS011;37840;47.562;18.738;2023-04-25T03:32:40;2.40;;;2.20;;
51244;SDS011;37840;47.562;18.738;2023-04-25T03:35:06;4.37;;;2.42;;
51244;SDS011;37840;47.562;18.738;2023-04-25T03:37:32;3.67;;;2.40;;
51244;SDS011;37840;47.562;18.738;2023-04-25T03:39:58;2.80;;;2.60;;
51244;SDS011;37840;47.562;18.738;2023-04-25T03:42:24;2.28;;;2.08;;
51244;SDS011;37840;47.562;18.738;2023-04-25T03:44:51;2.47;;;2.28;;
51244;SDS011;37840;47.562;18.738;2023-04-25T03:47:20;3.00;;;2.70;;
51244;SDS011;37840;47.562;18.738;2023-04-25T03:49:46;3.10;;;2.62;;
51244;SDS011;37840;47.562;18.738;2023-04-25T03:52:12;2.70;;;2.50;;
51244;SDS011;37840;47.562;18.738;2023-04-25T03:54:38;2.53;;;2.33;;
51244;SDS011;37840;47.562;18.738;2023-04-25T03:57:04;2.75;;;2.30;;
51244;SDS011;37840;47.562;18.738;2023-04-25T03:59:30;2.10;;;1.83;;
51244;SDS011;37840;47.562;18.738;2023-04-25T04:01:56;2.90;;;2.20;;
51244;SDS011;37840;47.562;18.738;2023-04-25T04:04:22;2.87;;;2.58;;
51244;SDS011;37840;47.562;18.738;2023-04-25T04:06:48;3.30;;;2.60;;
51244;SDS011;37840;47.562;18.738;2023-04-25T04:09:14;2.65;;;2.45;;
51244;SDS011;37840;47.562;18.738;2023-04-25T04:11:41;4.32;;;2.37;;
51244;SDS011;37840;47.562;18.738;2023-04-25T04:14:07;2.58;;;2.37;;
51244;SDS011;37840;47.562;18.738;2023-04-25T04:16:33;2.53;;;2.30;;
51244;SDS011;37840;47.562;18.738;2023-04-25T04:18:59;2.85;;;2.50;;
51244;SDS011;37840;47.562;18.738;2023-04-25T04:21:25;2.78;;;2.58;;
51244;SDS011;37840;47.562;18.738;2023-04-25T04:23:52;3.42;;;2.67;;
51244;SDS011;37840;47.562;18.738;2023-04-25T04:26:20;3.45;;;2.60;;
51244;SDS011;37840;47.562;18.738;2023-04-25T04:28:49;3.08;;;2.40;;
51244;SDS011;37840;47.562;18.738;2023-04-25T04:31:20;3.08;;;2.78;;
51244;SDS011;37840;47.562;18.738;2023-04-25T04:33:47;2.75;;;2.53;;
51244;SDS011;37840;47.562;18.738;2023-04-25T04:36:13;3.33;;;2.83;;
51244;SDS011;37840;47.562;18.738;2023-04-25T04:38:39;2.85;;;2.50;;
51244;SDS011;37840;47.562;18.738;2023-04-25T04:41:08;2.95;;;2.65;;
51244;SDS011;37840;47.562;18.738;2023-04-25T04:43:34;3.40;;;3.10;;
51244;SDS011;37840;47.562;18.738;2023-04-25T04:46:00;4.37;;;2.92;;
51244;SDS011;37840;47.562;18.738;2023-04-25T04:48:26;3.22;;;2.92;;
51244;SDS011;37840;47.562;18.738;2023-04-25T04:50:53;3.00;;;2.70;;
51244;SDS011;37840;47.562;18.738;2023-04-25T04:53:21;4.70;;;2.78;;
51244;SDS011;37840;47.562;18.738;2023-04-25T04:55:47;2.85;;;2.65;;
51244;SDS011;37840;47.562;18.738;2023-04-25T04:58:13;3.42;;;2.62;;
51244;SDS011;37840;47.562;18.738;2023-04-25T05:00:39;3.08;;;2.78;;
51244;SDS011;37840;47.562;18.738;2023-04-25T05:03:05;3.08;;;2.65;;
51244;SDS011;37840;47.562;18.738;2023-04-25T05:05:31;3.92;;;2.90;;
51244;SDS011;37840;47.562;18.738;2023-04-25T05:07:57;4.43;;;2.55;;
51244;SDS011;37840;47.562;18.738;2023-04-25T05:10:23;2.97;;;2.78;;
51244;SDS011;37840;47.562;18.738;2023-04-25T05:12:49;3.00;;;2.60;;
51244;SDS011;37840;47.562;18.738;2023-04-25T05:15:15;3.97;;;3.22;;
51244;SDS011;37840;47.562;18.738;2023-04-25T05:17:42;6.05;;;3.28;;
51244;SDS011;37840;47.562;18.738;2023-04-25T05:20:08;3.60;;;3.20;;
51244;SDS011;37840;47.562;18.738;2023-04-25T05:22:35;3.80;;;3.40;;
51244;SDS011;37840;47.562;18.738;2023-04-25T05:25:01;4.35;;;3.47;;
51244;SDS011;37840;47.562;18.738;2023-04-25T05:27:27;5.20;;;3.65;;
51244;SDS011;37840;47.562;18.738;2023-04-25T05:29:53;3.35;;;3.08;;
51244;SDS011;37840;47.562;18.738;2023-04-25T05:32:18;3.45;;;3.15;;
51244;SDS011;37840;47.562;18.738;2023-04-25T05:34:44;4.28;;;3.00;;
51244;SDS011;37840;47.562;18.738;2023-04-25T05:37:10;3.30;;;3.00;;
51244;SDS011;37840;47.562;18.738;2023-04-25T05:39:56;3.37;;;3.08;;
51244;SDS011;37840;47.562;18.738;2023-04-25T05:42:22;4.95;;;3.00;;
51244;SDS011;37840;47.562;18.738;2023-04-25T05:44:48;3.17;;;2.87;;
51244;SDS011;37840;47.562;18.738;2023-04-25T05:47:14;3.25;;;2.95;;
51244;SDS011;37840;47.562;18.738;2023-04-25T05:49:40;4.68;;;3.90;;
51244;SDS011;37840;47.562;18.738;2023-04-25T05:52:06;4.12;;;3.37;;
51244;SDS011;37840;47.562;18.738;2023-04-25T05:54:32;3.42;;;3.00;;
51244;SDS011;37840;47.562;18.738;2023-04-25T05:56:58;4.10;;;2.90;;
51244;SDS011;37840;47.562;18.738;2023-04-25T05:59:24;3.70;;;3.30;;
51244;SDS011;37840;47.562;18.738;2023-04-25T06:01:50;3.17;;;2.90;;
51244;SDS011;37840;47.562;18.738;2023-04-25T06:04:17;3.08;;;2.87;;
51244;SDS011;37840;47.562;18.738;2023-04-25T06:06:43;4.07;;;2.83;;
51244;SDS011;37840;47.562;18.738;2023-04-25T06:09:08;3.25;;;2.85;;
51244;SDS011;37840;47.562;18.738;2023-04-25T06:11:34;3.20;;;2.90;;
51244;SDS011;37840;47.562;18.738;2023-04-25T06:14:00;3.15;;;2.85;;
51244;SDS011;37840;47.562;18.738;2023-04-25T06:16:26;3.12;;;2.78;;
51244;SDS011;37840;47.562;18.738;2023-04-25T06:18:52;3.60;;;2.85;;
51244;SDS011;37840;47.562;18.738;2023-04-25T06:21:18;2.70;;;2.50;;
51244;SDS011;37840;47.562;18.738;2023-04-25T06:23:44;3.67;;;2.83;;
51244;SDS011;37840;47.562;18.738;2023-04-25T06:26:10;3.40;;;3.10;;
51244;SDS011;37840;47.562;18.738;2023-04-25T06:28:36;3.58;;;3.28;;
51244;SDS011;37840;47.562;18.738;2023-04-25T06:31:02;3.75;;;3.30;;
51244;SDS011;37840;47.562;18.738;2023-04-25T06:33:27;3.95;;;3.15;;
51244;SDS011;37840;47.562;18.738;2023-04-25T06:35:54;3.20;;;2.85;;
51244;SDS011;37840;47.562;18.738;2023-04-25T06:38:20;3.67;;;2.90;;
51244;SDS011;37840;47.562;18.738;2023-04-25T06:40:46;4.07;;;3.10;;
51244;SDS011;37840;47.562;18.738;2023-04-25T06:43:11;3.85;;;3.22;;
51244;SDS011;37840;47.562;18.738;2023-04-25T06:45:37;2.97;;;2.67;;
51244;SDS011;37840;47.562;18.738;2023-04-25T06:48:03;3.90;;;2.75;;
51244;SDS011;37840;47.562;18.738;2023-04-25T06:50:29;3.37;;;2.87;;
51244;SDS011;37840;47.562;18.738;2023-04-25T06:52:55;4.18;;;3.05;;
51244;SDS011;37840;47.562;18.738;2023-04-25T06:55:21;3.67;;;2.87;;
51244;SDS011;37840;47.562;18.738;2023-04-25T06:57:47;3.00;;;2.80;;
51244;SDS011;37840;47.562;18.738;2023-04-25T07:00:13;3.37;;;3.08;;
51244;SDS011;37840;47.562;18.738;2023-04-25T07:02:39;3.60;;;3.15;;
51244;SDS011;37840;47.562;18.738;2023-04-25T07:05:07;3.20;;;2.90;;
51244;SDS011;37840;47.562;18.738;2023-04-25T07:07:33;3.30;;;3.00;;
51244;SDS011;37840;47.562;18.738;2023-04-25T07:09:59;3.47;;;2.80;;
51244;SDS011;37840;47.562;18.738;2023-04-25T07:12:25;4.15;;;3.12;;
51244;SDS011;37840;47.562;18.738;2023-04-25T07:14:51;3.10;;;2.80;;
51244;SDS011;37840;47.562;18.738;2023-04-25T07:17:17;3.40;;;3.03;;
51244;SDS011;37840;47.562;18.738;2023-04-25T07:19:43;3.87;;;3.10;;
51244;SDS011;37840;47.562;18.738;2023-04-25T07:22:10;4.00;;;3.22;;
51244;SDS011;37840;47.562;18.738;2023-04-25T07:24:36;3.15;;;2.70;;
51244;SDS011;37840;47.562;18.738;2023-04-25T07:27:02;3.22;;;2.92;;
51244;SDS011;37840;47.562;18.738;2023-04-25T07:29:30;3.58;;;3.00;;
51244;SDS011;37840;47.562;18.738;2023-04-25T07:31:57;3.60;;;3.30;;
51244;SDS011;37840;47.562;18.738;2023-04-25T07:34:23;3.92;;;3.47;;
51244;SDS011;37840;47.562;18.738;2023-04-25T07:36:49;4.12;;;3.05;;
51244;SDS011;37840;47.562;18.738;2023-04-25T07:39:15;3.53;;;3.22;;
51244;SDS011;37840;47.562;18.738;2023-04-25T07:41:41;4.00;;;2.97;;
51244;SDS011;37840;47.562;18.738;2023-04-25T07:44:06;5.28;;;2.90;;
51244;SDS011;37840;47.562;18.738;2023-04-25T07:46:32;4.62;;;3.08;;
51244;SDS011;37840;47.562;18.738;2023-04-25T07:48:58;3.10;;;2.80;;
51244;SDS011;37840;47.562;18.738;2023-04-25T07:51:24;3.22;;;2.92;;
51244;SDS011;37840;47.562;18.738;2023-04-25T07:53:51;4.05;;;3.55;;
51244;SDS011;37840;47.562;18.738;2023-04-25T07:56:17;3.72;;;3.42;;
51244;SDS011;37840;47.562;18.738;2023-04-25T07:58:43;3.45;;;3.15;;
51244;SDS011;37840;47.562;18.738;2023-04-25T08:01:09;3.87;;;3.28;;
51244;SDS011;37840;47.562;18.738;2023-04-25T08:03:35;3.50;;;3.20;;
51244;SDS011;37840;47.562;18.738;2023-04-25T08:06:01;3.60;;;3.30;;
51244;SDS011;37840;47.562;18.738;2023-04-25T08:08:27;3.75;;;3.45;;
51244;SDS011;37840;47.562;18.738;2023-04-25T08:10:52;3.97;;;3.58;;
51244;SDS011;37840;47.562;18.738;2023-04-25T08:13:18;4.32;;;3.35;;
51244;SDS011;37840;47.562;18.738;2023-04-25T08:15:44;3.62;;;3.33;;
51244;SDS011;37840;47.562;18.738;2023-04-25T08:18:10;3.87;;;3.40;;
51244;SDS011;37840;47.562;18.738;2023-04-25T08:20:38;3.50;;;3.20;;
51244;SDS011;37840;47.562;18.738;2023-04-25T08:23:04;4.35;;;3.08;;
51244;SDS011;37840;47.562;18.738;2023-04-25T08:25:30;3.95;;;3.58;;
51244;SDS011;37840;47.562;18.738;2023-04-25T08:27:56;3.72;;;3.42;;
51244;SDS011;37840;47.562;18.738;2023-04-25T08:30:22;4.82;;;3.28;;
51244;SDS011;37840;47.562;18.738;2023-04-25T08:32:48;3.92;;;3.62;;
51244;SDS011;37840;47.562;18.738;2023-04-25T08:35:14;4.60;;;4.20;;
51244;SDS011;37840;47.562;18.738;2023-04-25T08:37:41;5.18;;;4.68;;
51244;SDS011;37840;47.562;18.738;2023-04-25T08:40:07;4.30;;;3.90;;
51244;SDS011;37840;47.562;18.738;2023-04-25T08:42:37;3.80;;;3.50;;
51244;SDS011;37840;47.562;18.738;2023-04-25T08:45:03;4.07;;;3.67;;
51244;SDS011;37840;47.562;18.738;2023-04-25T08:47:30;3.87;;;3.47;;
51244;SDS011;37840;47.562;18.738;2023-04-25T08:50:00;3.33;;;3.03;;
51244;SDS011;37840;47.562;18.738;2023-04-25T08:52:30;6.03;;;3.67;;
51244;SDS011;37840;47.562;18.738;2023-04-25T08:55:01;4.03;;;3.62;;
51244;SDS011;37840;47.562;18.738;2023-04-25T08:57:29;4.82;;;3.62;;
51244;SDS011;37840;47.562;18.738;2023-04-25T08:59:56;3.42;;;3.12;;
51244;SDS011;37840;47.562;18.738;2023-04-25T09:02:24;3.45;;;3.15;;
51244;SDS011;37840;47.562;18.738;2023-04-25T09:04:50;3.80;;;3.50;;
51244;SDS011;37840;47.562;18.738;2023-04-25T09:07:16;3.62;;;2.97;;
51244;SDS011;37840;47.562;18.738;2023-04-25T09:09:46;3.92;;;3.37;;
51244;SDS011;37840;47.562;18.738;2023-04-25T09:12:12;3.97;;;3.67;;
51244;SDS011;37840;47.562;18.738;2023-04-25T09:14:38;4.10;;;3.22;;
51244;SDS011;37840;47.562;18.738;2023-04-25T09:17:05;4.78;;;2.97;;
51244;SDS011;37840;47.562;18.738;2023-04-25T09:19:34;3.37;;;3.08;;
51244;SDS011;37840;47.562;18.738;2023-04-25T09:22:02;5.50;;;3.95;;
51244;SDS011;37840;47.562;18.738;2023-04-25T09:24:31;3.87;;;3.47;;
51244;SDS011;37840;47.562;18.738;2023-04-25T09:26:57;3.17;;;2.90;;
51244;SDS011;37840;47.562;18.738;2023-04-25T09:29:30;4.00;;;3.65;;
51244;SDS011;37840;47.562;18.738;2023-04-25T09:32:10;4.12;;;3.05;;
51244;SDS011;37840;47.562;18.738;2023-04-25T09:34:38;2.95;;;2.75;;
51244;SDS011;37840;47.562;18.738;2023-04-25T09:37:11;2.60;;;2.40;;
51244;SDS011;37840;47.562;18.738;2023-04-25T09:39:37;2.70;;;2.50;;
51244;SDS011;37840;47.562;18.738;2023-04-25T09:42:04;2.30;;;2.10;;
51244;SDS011;37840;47.562;18.738;2023-04-25T09:44:31;5.53;;;2.25;;
51244;SDS011;37840;47.562;18.738;2023-04-25T09:46:57;2.62;;;2.42;;
51244;SDS011;37840;47.562;18.738;2023-04-25T09:49:25;2.00;;;1.90;;
51244;SDS011;37840;47.562;18.738;2023-04-25T09:51:56;2.03;;;1.83;;
51244;SDS011;37840;47.562;18.738;2023-04-25T09:54:23;2.00;;;1.80;;
51244;SDS011;37840;47.562;18.738;2023-04-25T09:56:51;6.07;;;2.12;;
51244;SDS011;37840;47.562;18.738;2023-04-25T09:59:21;1.98;;;1.87;;
51244;SDS011;37840;47.562;18.738;2023-04-25T10:01:50;2.20;;;2.00;;
51244;SDS011;37840;47.562;18.738;2023-04-25T10:04:20;2.40;;;2.10;;
51244;SDS011;37840;47.562;18.738;2023-04-25T10:06:50;2.40;;;2.20;;
51244;SDS011;37840;47.562;18.738;2023-04-25T10:09:18;2.53;;;2.33;;
51244;SDS011;37840;47.562;18.738;2023-04-25T10:11:46;2.47;;;2.28;;
51244;SDS011;37840;47.562;18.738;2023-04-25T10:14:16;2.50;;;2.00;;
51244;SDS011;37840;47.562;18.738;2023-04-25T10:16:42;1.80;;;1.37;;
51244;SDS011;37840;47.562;18.738;2023-04-25T10:19:11;1.67;;;1.58;;
51244;SDS011;37840;47.562;18.738;2023-04-25T10:21:40;1.80;;;1.67;;
51244;SDS011;37840;47.562;18.738;2023-04-25T10:24:14;1.98;;;1.40;;
51244;SDS011;37840;47.562;18.738;2023-04-25T10:26:40;1.25;;;1.15;;
51244;SDS011;37840;47.562;18.738;2023-04-25T10:29:07;1.73;;;1.10;;
51244;SDS011;37840;47.562;18.738;2023-04-25T10:31:37;1.73;;;1.10;;
51244;SDS011;37840;47.562;18.738;2023-04-25T10:34:11;1.20;;;1.10;;
51244;SDS011;37840;47.562;18.738;2023-04-25T10:36:37;2.08;;;1.00;;
51244;SDS011;37840;47.562;18.738;2023-04-25T10:39:03;1.10;;;1.00;;
51244;SDS011;37840;47.562;18.738;2023-04-25T10:41:47;0.95;;;0.85;;
51244;SDS011;37840;47.562;18.738;2023-04-25T10:44:18;1.20;;;0.85;;
51244;SDS011;37840;47.562;18.738;2023-04-25T10:46:44;1.12;;;1.02;;
51244;SDS011;37840;47.562;18.738;2023-04-25T10:49:14;2.17;;;1.00;;
51244;SDS011;37840;47.562;18.738;2023-04-25T10:52:10;1.10;;;1.00;;
51244;SDS011;37840;47.562;18.738;2023-04-25T10:54:49;1.40;;;1.30;;
51244;SDS011;37840;47.562;18.738;2023-04-25T11:02:31;2.33;;;1.10;;
51244;SDS011;37840;47.562;18.738;2023-04-25T11:05:02;1.05;;;0.95;;
51244;SDS011;37840;47.562;18.738;2023-04-25T11:10:26;2.25;;;1.23;;
51244;SDS011;37840;47.562;18.738;2023-04-25T11:12:54;1.00;;;0.90;;
51244;SDS011;37840;47.562;18.738;2023-04-25T11:15:20;2.55;;;1.25;;
51244;SDS011;37840;47.562;18.738;2023-04-25T11:17:46;1.20;;;1.10;;
51244;SDS011;37840;47.562;18.738;2023-04-25T11:20:13;1.70;;;1.20;;
51244;SDS011;37840;47.562;18.738;2023-04-25T11:22:41;1.58;;;1.10;;
51244;SDS011;37840;47.562;18.738;2023-04-25T11:25:09;2.30;;;1.40;;
51244;SDS011;37840;47.562;18.738;2023-04-25T11:27:38;1.05;;;0.95;;
51244;SDS011;37840;47.562;18.738;2023-04-25T11:30:15;1.20;;;0.90;;
51244;SDS011;37840;47.562;18.738;2023-04-25T11:32:41;2.17;;;1.10;;
51244;SDS011;37840;47.562;18.738;2023-04-25T11:35:09;3.40;;;1.10;;
51244;SDS011;37840;47.562;18.738;2023-04-25T11:37:35;1.45;;;1.30;;
51244;SDS011;37840;47.562;18.738;2023-04-25T11:40:02;1.20;;;1.10;;
51244;SDS011;37840;47.562;18.738;2023-04-25T11:42:32;1.75;;;1.40;;
51244;SDS011;37840;47.562;18.738;2023-04-25T11:45:01;2.08;;;1.30;;
51244;SDS011;37840;47.562;18.738;2023-04-25T11:47:32;1.60;;;1.50;;
51244;SDS011;37840;47.562;18.738;2023-04-25T11:49:59;2.50;;;1.80;;
51244;SDS011;37840;47.562;18.738;2023-04-25T11:52:39;1.33;;;1.20;;
51244;SDS011;37840;47.562;18.738;2023-04-25T11:55:06;2.03;;;1.25;;
51244;SDS011;37840;47.562;18.738;2023-04-25T11:57:38;1.35;;;1.12;;
51244;SDS011;37840;47.562;18.738;2023-04-25T12:00:10;2.30;;;1.40;;
51244;SDS011;37840;47.562;18.738;2023-04-25T12:02:41;1.65;;;1.40;;
51244;SDS011;37840;47.562;18.738;2023-04-25T12:05:12;1.40;;;1.30;;
51244;SDS011;37840;47.562;18.738;2023-04-25T12:07:41;1.85;;;1.35;;
51244;SDS011;37840;47.562;18.738;2023-04-25T12:10:16;4.22;;;1.50;;
51244;SDS011;37840;47.562;18.738;2023-04-25T12:12:44;1.52;;;1.30;;
51244;SDS011;37840;47.562;18.738;2023-04-25T12:17:41;2.15;;;1.30;;
51244;SDS011;37840;47.562;18.738;2023-04-25T12:20:11;3.08;;;1.35;;
51244;SDS011;37840;47.562;18.738;2023-04-25T12:22:40;1.45;;;1.10;;
51244;SDS011;37840;47.562;18.738;2023-04-25T12:25:11;1.33;;;1.23;;
51244;SDS011;37840;47.562;18.738;2023-04-25T12:27:38;2.60;;;1.58;;
51244;SDS011;37840;47.562;18.738;2023-04-25T12:30:07;1.67;;;1.30;;
51244;SDS011;37840;47.562;18.738;2023-04-25T12:32:34;2.53;;;1.30;;
51244;SDS011;37840;47.562;18.738;2023-04-25T12:35:00;1.17;;;1.08;;
51244;SDS011;37840;47.562;18.738;2023-04-25T12:37:25;1.37;;;1.27;;
51244;SDS011;37840;47.562;18.738;2023-04-25T12:39:51;2.10;;;1.12;;
51244;SDS011;37840;47.562;18.738;2023-04-25T12:42:17;4.40;;;1.30;;
51244;SDS011;37840;47.562;18.738;2023-04-25T12:44:43;1.87;;;1.20;;
51244;SDS011;37840;47.562;18.738;2023-04-25T12:47:09;1.45;;;1.20;;
51244;SDS011;37840;47.562;18.738;2023-04-25T12:49:35;4.85;;;1.50;;
51244;SDS011;37840;47.562;18.738;2023-04-25T12:52:01;1.95;;;1.30;;
51244;SDS011;37840;47.562;18.738;2023-04-25T12:54:27;2.33;;;1.27;;
51244;SDS011;37840;47.562;18.738;2023-04-25T12:56:53;3.62;;;1.30;;
51244;SDS011;37840;47.562;18.738;2023-04-25T12:59:20;1.90;;;1.20;;
51244;SDS011;37840;47.562;18.738;2023-04-25T13:01:46;2.97;;;1.40;;
51244;SDS011;37840;47.562;18.738;2023-04-25T13:04:12;1.60;;;1.30;;
51244;SDS011;37840;47.562;18.738;2023-04-25T13:06:38;1.90;;;1.40;;
51244;SDS011;37840;47.562;18.738;2023-04-25T13:09:04;1.40;;;1.20;;
51244;SDS011;37840;47.562;18.738;2023-04-25T13:11:32;2.90;;;1.30;;
51244;SDS011;37840;47.562;18.738;2023-04-25T13:13:58;1.98;;;1.70;;
51244;SDS011;37840;47.562;18.738;2023-04-25T13:16:23;1.50;;;1.17;;
51244;SDS011;37840;47.562;18.738;2023-04-25T13:18:49;1.92;;;1.33;;
51244;SDS011;37840;47.562;18.738;2023-04-25T13:21:15;1.35;;;1.25;;
51244;SDS011;37840;47.562;18.738;2023-04-25T13:23:41;1.50;;;1.27;;
51244;SDS011;37840;47.562;18.738;2023-04-25T13:26:12;2.28;;;1.80;;
51244;SDS011;37840;47.562;18.738;2023-04-25T13:28:37;1.80;;;1.55;;
51244;SDS011;37840;47.562;18.738;2023-04-25T13:31:04;1.92;;;1.40;;
51244;SDS011;37840;47.562;18.738;2023-04-25T13:33:30;1.95;;;1.30;;
51244;SDS011;37840;47.562;18.738;2023-04-25T13:35:56;2.90;;;1.45;;
51244;SDS011;37840;47.562;18.738;2023-04-25T13:38:23;1.40;;;1.30;;
51244;SDS011;37840;47.562;18.738;2023-04-25T13:40:50;1.60;;;1.50;;
51244;SDS011;37840;47.562;18.738;2023-04-25T13:43:18;2.25;;;1.50;;
51244;SDS011;37840;47.562;18.738;2023-04-25T13:45:45;1.90;;;1.27;;
51244;SDS011;37840;47.562;18.738;2023-04-25T13:48:11;1.98;;;1.30;;
51244;SDS011;37840;47.562;18.738;2023-04-25T13:50:37;1.48;;;1.20;;
51244;SDS011;37840;47.562;18.738;2023-04-25T13:53:03;1.50;;;1.35;;
51244;SDS011;37840;47.562;18.738;2023-04-25T13:55:29;1.40;;;1.30;;
51244;SDS011;37840;47.562;18.738;2023-04-25T13:57:55;1.98;;;1.35;;
51244;SDS011;37840;47.562;18.738;2023-04-25T14:00:21;1.85;;;1.48;;
51244;SDS011;37840;47.562;18.738;2023-04-25T14:02:47;1.98;;;1.27;;
51244;SDS011;37840;47.562;18.738;2023-04-25T14:05:13;3.25;;;1.42;;
51244;SDS011;37840;47.562;18.738;2023-04-25T14:07:39;1.45;;;1.30;;
51244;SDS011;37840;47.562;18.738;2023-04-25T14:10:05;1.58;;;1.37;;
51244;SDS011;37840;47.562;18.738;2023-04-25T14:12:32;2.10;;;1.50;;
51244;SDS011;37840;47.562;18.738;2023-04-25T14:14:58;2.00;;;1.40;;
51244;SDS011;37840;47.562;18.738;2023-04-25T14:17:24;2.22;;;1.27;;
51244;SDS011;37840;47.562;18.738;2023-04-25T14:19:51;1.83;;;1.35;;
51244;SDS011;37840;47.562;18.738;2023-04-25T14:22:17;1.90;;;1.70;;
51244;SDS011;37840;47.562;18.738;2023-04-25T14:24:43;2.35;;;1.62;;
51244;SDS011;37840;47.562;18.738;2023-04-25T14:27:09;3.20;;;1.50;;
51244;SDS011;37840;47.562;18.738;2023-04-25T14:29:35;1.55;;;1.40;;
51244;SDS011;37840;47.562;18.738;2023-04-25T14:32:01;2.00;;;1.80;;
51244;SDS011;37840;47.562;18.738;2023-04-25T14:34:46;2.62;;;1.30;;
51244;SDS011;37840;47.562;18.738;2023-04-25T14:37:12;1.75;;;1.37;;
51244;SDS011;37840;47.562;18.738;2023-04-25T14:39:38;1.95;;;1.58;;
51244;SDS011;37840;47.562;18.738;2023-04-25T14:42:04;2.50;;;1.60;;
51244;SDS011;37840;47.562;18.738;2023-04-25T14:44:30;2.03;;;1.60;;